sensor_id;sensor_type;location;lat;lon;timestamp;temperature;humidity
52159;DHT22;38145;53.182;6.284;2022-09-09T00:00:24;14.70;99.90
52159;DHT22;38145;53.182;6.284;2022-09-09T00:03:08;14.90;99.90
52159;DHT22;38145;53.182;6.284;2022-09-09T00:05:41;14.70;99.90
52159;DHT22;38145;53.182;6.284;2022-09-09T00:08:18;14.70;99.90
52159;DHT22;38145;53.182;6.284;2022-09-09T00:10:46;14.80;99.90
52159;DHT22;38145;53.182;6.284;2022-09-09T00:13:23;14.70;99.90
52159;DHT22;38145;53.182;6.284;2022-09-09T00:15:59;14.50;99.90
52159;DHT22;38145;53.182;6.284;2022-09-09T00:21:06;14.40;99.90
52159;DHT22;38145;53.182;6.284;2022-09-09T00:23:37;14.60;99.90
52159;DHT22;38145;53.182;6.284;2022-09-09T00:26:17;14.30;99.90
52159;DHT22;38145;53.182;6.284;2022-09-09T00:28:52;14.60;99.90
52159;DHT22;38145;53.182;6.284;2022-09-09T00:31:29;14.60;99.90
52159;DHT22;38145;53.182;6.284;2022-09-09T00:34:00;14.60;99.90
52159;DHT22;38145;53.182;6.284;2022-09-09T00:36:28;14.60;99.90
52159;DHT22;38145;53.182;6.284;2022-09-09T00:38:58;14.60;99.90
52159;DHT22;38145;53.182;6.284;2022-09-09T00:44:33;14.20;99.90
52159;DHT22;38145;53.182;6.284;2022-09-09T00:49:57;14.50;99.90
52159;DHT22;38145;53.182;6.284;2022-09-09T00:52:39;14.40;99.90
52159;DHT22;38145;53.182;6.284;2022-09-09T00:55:21;14.30;99.90
52159;DHT22;38145;53.182;6.284;2022-09-09T00:57:52;14.10;99.90
52159;DHT22;38145;53.182;6.284;2022-09-09T01:03:13;14.00;99.90
52159;DHT22;38145;53.182;6.284;2022-09-09T01:11:25;14.20;99.90
52159;DHT22;38145;53.182;6.284;2022-09-09T01:14:05;14.20;99.90
52159;DHT22;38145;53.182;6.284;2022-09-09T01:16:35;13.90;99.90
52159;DHT22;38145;53.182;6.284;2022-09-09T01:19:03;13.90;99.90
52159;DHT22;38145;53.182;6.284;2022-09-09T01:21:46;14.00;99.90
52159;DHT22;38145;53.182;6.284;2022-09-09T01:24:42;13.90;99.90
52159;DHT22;38145;53.182;6.284;2022-09-09T01:27:11;14.10;99.90
52159;DHT22;38145;53.182;6.284;2022-09-09T01:29:38;13.90;99.90
52159;DHT22;38145;53.182;6.284;2022-09-09T01:32:42;13.80;99.90
52159;DHT22;38145;53.182;6.284;2022-09-09T01:35:14;14.10;99.90
52159;DHT22;38145;53.182;6.284;2022-09-09T01:37:40;14.00;99.90
52159;DHT22;38145;53.182;6.284;2022-09-09T01:40:07;14.00;99.90
52159;DHT22;38145;53.182;6.284;2022-09-09T01:42:33;13.70;99.90
52159;DHT22;38145;53.182;6.284;2022-09-09T01:44:59;14.00;99.90
52159;DHT22;38145;53.182;6.284;2022-09-09T01:47:24;14.00;99.90
52159;DHT22;38145;53.182;6.284;2022-09-09T01:49:50;13.90;99.90
52159;DHT22;38145;53.182;6.284;2022-09-09T01:52:16;13.90;99.90
52159;DHT22;38145;53.182;6.284;2022-09-09T01:54:42;13.70;99.90
52159;DHT22;38145;53.182;6.284;2022-09-09T01:59:53;13.90;99.90
52159;DHT22;38145;53.182;6.284;2022-09-09T02:02:29;13.80;99.90
52159;DHT22;38145;53.182;6.284;2022-09-09T02:05:11;13.70;99.90
52159;DHT22;38145;53.182;6.284;2022-09-09T02:07:47;13.60;99.90
52159;DHT22;38145;53.182;6.284;2022-09-09T02:10:21;13.60;99.90
52159;DHT22;38145;53.182;6.284;2022-09-09T02:12:55;13.90;99.90
52159;DHT22;38145;53.182;6.284;2022-09-09T02:15:34;14.00;99.90
52159;DHT22;38145;53.182;6.284;2022-09-09T02:18:06;14.00;99.90
52159;DHT22;38145;53.182;6.284;2022-09-09T02:20:36;13.80;99.90
52159;DHT22;38145;53.182;6.284;2022-09-09T02:23:02;14.00;99.90
52159;DHT22;38145;53.182;6.284;2022-09-09T02:25:29;14.10;99.90
52159;DHT22;38145;53.182;6.284;2022-09-09T02:27:56;13.90;99.90
52159;DHT22;38145;53.182;6.284;2022-09-09T02:30:29;14.10;99.90
52159;DHT22;38145;53.182;6.284;2022-09-09T02:32:58;13.90;99.90
52159;DHT22;38145;53.182;6.284;2022-09-09T02:35:26;14.20;99.90
52159;DHT22;38145;53.182;6.284;2022-09-09T02:37:55;13.90;99.90
52159;DHT22;38145;53.182;6.284;2022-09-09T02:40:22;13.90;99.90
52159;DHT22;38145;53.182;6.284;2022-09-09T02:42:49;14.20;99.90
52159;DHT22;38145;53.182;6.284;2022-09-09T02:45:19;13.90;99.90
52159;DHT22;38145;53.182;6.284;2022-09-09T02:48:03;14.20;99.90
52159;DHT22;38145;53.182;6.284;2022-09-09T02:50:35;14.20;99.90
52159;DHT22;38145;53.182;6.284;2022-09-09T02:53:15;14.00;99.90
52159;DHT22;38145;53.182;6.284;2022-09-09T02:55:47;13.90;99.90
52159;DHT22;38145;53.182;6.284;2022-09-09T02:58:17;14.20;99.90
52159;DHT22;38145;53.182;6.284;2022-09-09T03:00:45;14.00;99.90
52159;DHT22;38145;53.182;6.284;2022-09-09T03:03:12;14.20;99.90
52159;DHT22;38145;53.182;6.284;2022-09-09T03:05:38;14.10;99.90
52159;DHT22;38145;53.182;6.284;2022-09-09T03:08:05;13.90;99.90
52159;DHT22;38145;53.182;6.284;2022-09-09T03:10:32;13.90;99.90
52159;DHT22;38145;53.182;6.284;2022-09-09T03:12:58;14.20;99.90
52159;DHT22;38145;53.182;6.284;2022-09-09T03:15:24;14.30;99.90
52159;DHT22;38145;53.182;6.284;2022-09-09T03:17:55;14.30;99.90
52159;DHT22;38145;53.182;6.284;2022-09-09T03:20:24;13.90;99.90
52159;DHT22;38145;53.182;6.284;2022-09-09T03:22:51;14.20;99.90
52159;DHT22;38145;53.182;6.284;2022-09-09T03:25:17;13.90;99.90
52159;DHT22;38145;53.182;6.284;2022-09-09T03:27:43;13.90;99.90
52159;DHT22;38145;53.182;6.284;2022-09-09T03:30:09;13.90;99.90
52159;DHT22;38145;53.182;6.284;2022-09-09T03:32:36;13.90;99.90
52159;DHT22;38145;53.182;6.284;2022-09-09T03:35:02;14.20;99.90
52159;DHT22;38145;53.182;6.284;2022-09-09T03:37:28;13.90;99.90
52159;DHT22;38145;53.182;6.284;2022-09-09T03:39:54;14.20;99.90
52159;DHT22;38145;53.182;6.284;2022-09-09T03:42:20;13.80;99.90
52159;DHT22;38145;53.182;6.284;2022-09-09T03:44:48;14.00;99.90
52159;DHT22;38145;53.182;6.284;2022-09-09T03:47:16;13.80;99.90
52159;DHT22;38145;53.182;6.284;2022-09-09T03:49:42;13.80;99.90
52159;DHT22;38145;53.182;6.284;2022-09-09T03:52:09;14.10;99.90
52159;DHT22;38145;53.182;6.284;2022-09-09T03:54:35;13.80;99.90
52159;DHT22;38145;53.182;6.284;2022-09-09T03:57:01;14.10;99.90
52159;DHT22;38145;53.182;6.284;2022-09-09T03:59:27;14.10;99.90
52159;DHT22;38145;53.182;6.284;2022-09-09T04:01:53;14.10;99.90
52159;DHT22;38145;53.182;6.284;2022-09-09T04:04:20;14.00;99.90
52159;DHT22;38145;53.182;6.284;2022-09-09T04:06:46;14.00;99.90
52159;DHT22;38145;53.182;6.284;2022-09-09T04:09:14;14.10;99.90
52159;DHT22;38145;53.182;6.284;2022-09-09T04:11:40;14.00;99.90
52159;DHT22;38145;53.182;6.284;2022-09-09T04:14:07;14.00;99.90
52159;DHT22;38145;53.182;6.284;2022-09-09T04:16:33;14.10;99.90
52159;DHT22;38145;53.182;6.284;2022-09-09T04:19:00;14.20;99.90
52159;DHT22;38145;53.182;6.284;2022-09-09T04:21:26;14.00;99.90
52159;DHT22;38145;53.182;6.284;2022-09-09T04:23:52;14.00;99.90
52159;DHT22;38145;53.182;6.284;2022-09-09T04:26:18;14.10;99.90
52159;DHT22;38145;53.182;6.284;2022-09-09T04:28:45;14.20;99.90
52159;DHT22;38145;53.182;6.284;2022-09-09T04:31:17;14.20;99.90
52159;DHT22;38145;53.182;6.284;2022-09-09T04:33:44;14.20;99.90
52159;DHT22;38145;53.182;6.284;2022-09-09T04:36:09;14.30;99.90
52159;DHT22;38145;53.182;6.284;2022-09-09T04:38:35;14.30;99.90
52159;DHT22;38145;53.182;6.284;2022-09-09T04:41:01;14.10;99.90
52159;DHT22;38145;53.182;6.284;2022-09-09T04:43:27;14.30;99.90
52159;DHT22;38145;53.182;6.284;2022-09-09T04:45:53;14.30;99.90
52159;DHT22;38145;53.182;6.284;2022-09-09T04:48:20;14.40;99.90
52159;DHT22;38145;53.182;6.284;2022-09-09T04:50:55;14.20;99.90
52159;DHT22;38145;53.182;6.284;2022-09-09T04:53:21;14.40;99.90
52159;DHT22;38145;53.182;6.284;2022-09-09T04:55:47;14.30;99.90
52159;DHT22;38145;53.182;6.284;2022-09-09T04:58:14;14.20;99.90
52159;DHT22;38145;53.182;6.284;2022-09-09T05:00:40;14.20;99.90
52159;DHT22;38145;53.182;6.284;2022-09-09T05:03:08;14.30;99.90
52159;DHT22;38145;53.182;6.284;2022-09-09T05:05:34;14.20;99.90
52159;DHT22;38145;53.182;6.284;2022-09-09T05:08:02;14.30;99.90
52159;DHT22;38145;53.182;6.284;2022-09-09T05:10:28;14.40;99.90
52159;DHT22;38145;53.182;6.284;2022-09-09T05:12:54;14.30;99.90
52159;DHT22;38145;53.182;6.284;2022-09-09T05:15:20;14.20;99.90
52159;DHT22;38145;53.182;6.284;2022-09-09T05:17:46;14.40;99.90
52159;DHT22;38145;53.182;6.284;2022-09-09T05:20:12;14.30;99.90
52159;DHT22;38145;53.182;6.284;2022-09-09T05:22:38;14.40;99.90
52159;DHT22;38145;53.182;6.284;2022-09-09T05:25:04;14.20;99.90
52159;DHT22;38145;53.182;6.284;2022-09-09T05:27:30;14.40;99.90
52159;DHT22;38145;53.182;6.284;2022-09-09T05:29:57;14.20;99.90
52159;DHT22;38145;53.182;6.284;2022-09-09T05:32:23;14.30;99.90
52159;DHT22;38145;53.182;6.284;2022-09-09T05:34:49;14.40;99.90
52159;DHT22;38145;53.182;6.284;2022-09-09T05:37:16;14.40;99.90
52159;DHT22;38145;53.182;6.284;2022-09-09T05:39:42;14.20;99.90
52159;DHT22;38145;53.182;6.284;2022-09-09T05:42:07;14.30;99.90
52159;DHT22;38145;53.182;6.284;2022-09-09T05:44:33;14.50;99.90
52159;DHT22;38145;53.182;6.284;2022-09-09T05:46:59;14.40;99.90
52159;DHT22;38145;53.182;6.284;2022-09-09T05:49:25;14.30;99.90
52159;DHT22;38145;53.182;6.284;2022-09-09T05:51:51;14.40;99.90
52159;DHT22;38145;53.182;6.284;2022-09-09T05:54:17;14.40;99.90
52159;DHT22;38145;53.182;6.284;2022-09-09T05:56:43;14.30;99.90
52159;DHT22;38145;53.182;6.284;2022-09-09T05:59:09;14.20;99.90
52159;DHT22;38145;53.182;6.284;2022-09-09T06:01:36;14.40;99.90
52159;DHT22;38145;53.182;6.284;2022-09-09T06:04:06;14.30;99.90
52159;DHT22;38145;53.182;6.284;2022-09-09T06:06:35;14.50;99.90
52159;DHT22;38145;53.182;6.284;2022-09-09T06:09:03;14.30;99.90
52159;DHT22;38145;53.182;6.284;2022-09-09T06:11:32;14.30;99.90
52159;DHT22;38145;53.182;6.284;2022-09-09T06:14:02;14.30;99.90
52159;DHT22;38145;53.182;6.284;2022-09-09T06:16:29;14.30;99.90
52159;DHT22;38145;53.182;6.284;2022-09-09T06:18:56;14.30;99.90
52159;DHT22;38145;53.182;6.284;2022-09-09T06:21:25;14.50;99.90
52159;DHT22;38145;53.182;6.284;2022-09-09T06:23:51;14.50;99.90
52159;DHT22;38145;53.182;6.284;2022-09-09T06:26:20;14.60;99.90
52159;DHT22;38145;53.182;6.284;2022-09-09T06:28:47;14.60;99.90
52159;DHT22;38145;53.182;6.284;2022-09-09T06:31:15;14.50;99.90
52159;DHT22;38145;53.182;6.284;2022-09-09T06:33:42;14.70;99.90
52159;DHT22;38145;53.182;6.284;2022-09-09T06:36:12;14.70;99.90
52159;DHT22;38145;53.182;6.284;2022-09-09T06:38:38;14.60;99.90
52159;DHT22;38145;53.182;6.284;2022-09-09T06:41:04;14.80;99.90
52159;DHT22;38145;53.182;6.284;2022-09-09T06:43:31;14.60;99.90
52159;DHT22;38145;53.182;6.284;2022-09-09T06:46:03;14.80;99.90
52159;DHT22;38145;53.182;6.284;2022-09-09T06:48:30;14.80;99.90
52159;DHT22;38145;53.182;6.284;2022-09-09T06:51:08;14.80;99.90
52159;DHT22;38145;53.182;6.284;2022-09-09T06:53:35;14.60;99.90
52159;DHT22;38145;53.182;6.284;2022-09-09T06:56:03;14.70;99.90
52159;DHT22;38145;53.182;6.284;2022-09-09T06:58:43;14.60;99.90
52159;DHT22;38145;53.182;6.284;2022-09-09T07:01:11;14.60;99.90
52159;DHT22;38145;53.182;6.284;2022-09-09T07:03:38;14.80;99.90
52159;DHT22;38145;53.182;6.284;2022-09-09T07:06:05;14.60;99.90
52159;DHT22;38145;53.182;6.284;2022-09-09T07:08:31;14.60;99.90
52159;DHT22;38145;53.182;6.284;2022-09-09T07:11:03;14.70;99.90
52159;DHT22;38145;53.182;6.284;2022-09-09T07:13:30;14.80;99.90
52159;DHT22;38145;53.182;6.284;2022-09-09T07:16:04;14.90;99.90
52159;DHT22;38145;53.182;6.284;2022-09-09T07:18:31;14.70;99.90
52159;DHT22;38145;53.182;6.284;2022-09-09T07:20:57;14.80;99.90
52159;DHT22;38145;53.182;6.284;2022-09-09T07:23:23;15.00;99.90
52159;DHT22;38145;53.182;6.284;2022-09-09T07:25:49;14.90;99.90
52159;DHT22;38145;53.182;6.284;2022-09-09T07:28:16;14.90;99.90
52159;DHT22;38145;53.182;6.284;2022-09-09T07:30:42;15.10;99.90
52159;DHT22;38145;53.182;6.284;2022-09-09T07:33:08;15.20;99.90
52159;DHT22;38145;53.182;6.284;2022-09-09T07:35:35;15.30;99.90
52159;DHT22;38145;53.182;6.284;2022-09-09T07:38:02;15.40;99.90
52159;DHT22;38145;53.182;6.284;2022-09-09T07:40:33;15.30;99.90
52159;DHT22;38145;53.182;6.284;2022-09-09T07:42:59;15.20;99.90
52159;DHT22;38145;53.182;6.284;2022-09-09T07:45:26;15.30;99.90
52159;DHT22;38145;53.182;6.284;2022-09-09T07:47:54;15.40;99.90
52159;DHT22;38145;53.182;6.284;2022-09-09T07:50:23;15.30;99.90
52159;DHT22;38145;53.182;6.284;2022-09-09T07:52:50;15.30;99.90
52159;DHT22;38145;53.182;6.284;2022-09-09T07:55:16;15.50;99.90
52159;DHT22;38145;53.182;6.284;2022-09-09T07:57:42;15.60;99.90
52159;DHT22;38145;53.182;6.284;2022-09-09T08:00:08;15.70;99.90
52159;DHT22;38145;53.182;6.284;2022-09-09T08:02:35;15.50;99.90
52159;DHT22;38145;53.182;6.284;2022-09-09T08:05:01;15.70;99.90
52159;DHT22;38145;53.182;6.284;2022-09-09T08:07:27;15.70;99.90
52159;DHT22;38145;53.182;6.284;2022-09-09T08:09:54;15.70;99.90
52159;DHT22;38145;53.182;6.284;2022-09-09T08:12:21;15.80;99.90
52159;DHT22;38145;53.182;6.284;2022-09-09T08:14:48;15.70;99.90
52159;DHT22;38145;53.182;6.284;2022-09-09T08:17:14;15.90;99.90
52159;DHT22;38145;53.182;6.284;2022-09-09T08:19:40;15.80;99.90
52159;DHT22;38145;53.182;6.284;2022-09-09T08:22:06;15.90;99.90
52159;DHT22;38145;53.182;6.284;2022-09-09T08:24:33;15.80;99.90
52159;DHT22;38145;53.182;6.284;2022-09-09T08:26:59;16.10;99.90
52159;DHT22;38145;53.182;6.284;2022-09-09T08:29:25;16.10;99.90
52159;DHT22;38145;53.182;6.284;2022-09-09T08:31:52;16.30;99.90
52159;DHT22;38145;53.182;6.284;2022-09-09T08:34:20;16.90;99.90
52159;DHT22;38145;53.182;6.284;2022-09-09T08:36:48;17.40;99.90
52159;DHT22;38145;53.182;6.284;2022-09-09T08:39:16;18.10;99.90
52159;DHT22;38145;53.182;6.284;2022-09-09T08:44:49;19.00;99.90
52159;DHT22;38145;53.182;6.284;2022-09-09T08:49:59;19.60;99.90
52159;DHT22;38145;53.182;6.284;2022-09-09T08:52:36;19.90;99.90
52159;DHT22;38145;53.182;6.284;2022-09-09T08:57:41;20.40;99.90
52159;DHT22;38145;53.182;6.284;2022-09-09T09:00:10;20.70;99.90
52159;DHT22;38145;53.182;6.284;2022-09-09T09:02:49;20.90;99.90
52159;DHT22;38145;53.182;6.284;2022-09-09T09:05:27;21.00;99.90
52159;DHT22;38145;53.182;6.284;2022-09-09T09:10:47;21.20;99.90
52159;DHT22;38145;53.182;6.284;2022-09-09T09:13:24;21.20;99.90
52159;DHT22;38145;53.182;6.284;2022-09-09T09:16:00;21.10;99.90
52159;DHT22;38145;53.182;6.284;2022-09-09T09:18:27;20.90;99.90
52159;DHT22;38145;53.182;6.284;2022-09-09T09:21:10;20.80;99.90
52159;DHT22;38145;53.182;6.284;2022-09-09T09:23:45;20.50;99.90
52159;DHT22;38145;53.182;6.284;2022-09-09T09:26:14;20.50;99.90
52159;DHT22;38145;53.182;6.284;2022-09-09T09:28:40;20.30;99.90
52159;DHT22;38145;53.182;6.284;2022-09-09T09:31:09;20.00;99.90
52159;DHT22;38145;53.182;6.284;2022-09-09T09:36:07;19.70;99.90
52159;DHT22;38145;53.182;6.284;2022-09-09T09:38:35;19.50;99.90
52159;DHT22;38145;53.182;6.284;2022-09-09T09:41:01;19.40;99.90
52159;DHT22;38145;53.182;6.284;2022-09-09T09:45:55;19.20;99.90
52159;DHT22;38145;53.182;6.284;2022-09-09T09:48:24;19.10;99.90
52159;DHT22;38145;53.182;6.284;2022-09-09T09:50:57;19.10;99.90
52159;DHT22;38145;53.182;6.284;2022-09-09T09:53:26;19.20;99.90
52159;DHT22;38145;53.182;6.284;2022-09-09T09:58:30;19.30;99.90
52159;DHT22;38145;53.182;6.284;2022-09-09T10:00:57;19.30;99.90
52159;DHT22;38145;53.182;6.284;2022-09-09T10:03:27;19.30;99.90
52159;DHT22;38145;53.182;6.284;2022-09-09T10:05:54;19.20;99.90
52159;DHT22;38145;53.182;6.284;2022-09-09T10:08:22;19.00;99.90
52159;DHT22;38145;53.182;6.284;2022-09-09T10:13:35;18.70;99.90
52159;DHT22;38145;53.182;6.284;2022-09-09T10:16:29;18.60;99.90
52159;DHT22;38145;53.182;6.284;2022-09-09T10:19:05;18.40;99.90
52159;DHT22;38145;53.182;6.284;2022-09-09T10:26:52;18.60;99.90
52159;DHT22;38145;53.182;6.284;2022-09-09T10:29:33;18.80;99.90
52159;DHT22;38145;53.182;6.284;2022-09-09T10:35:13;18.90;99.90
52159;DHT22;38145;53.182;6.284;2022-09-09T10:38:10;19.00;99.90
52159;DHT22;38145;53.182;6.284;2022-09-09T10:40:42;19.00;99.90
52159;DHT22;38145;53.182;6.284;2022-09-09T10:43:20;19.20;99.90
52159;DHT22;38145;53.182;6.284;2022-09-09T10:51:17;19.80;99.90
52159;DHT22;38145;53.182;6.284;2022-09-09T10:53:56;20.10;99.90
52159;DHT22;38145;53.182;6.284;2022-09-09T10:56:29;20.10;99.90
52159;DHT22;38145;53.182;6.284;2022-09-09T10:59:15;20.00;99.90
52159;DHT22;38145;53.182;6.284;2022-09-09T11:01:56;20.00;99.90
52159;DHT22;38145;53.182;6.284;2022-09-09T11:04:28;19.80;99.90
52159;DHT22;38145;53.182;6.284;2022-09-09T11:06:58;19.80;99.90
52159;DHT22;38145;53.182;6.284;2022-09-09T11:09:35;19.80;99.90
52159;DHT22;38145;53.182;6.284;2022-09-09T11:12:02;19.80;99.90
52159;DHT22;38145;53.182;6.284;2022-09-09T11:14:34;19.70;99.90
52159;DHT22;38145;53.182;6.284;2022-09-09T11:17:09;19.50;99.90
52159;DHT22;38145;53.182;6.284;2022-09-09T11:19:43;19.40;99.90
52159;DHT22;38145;53.182;6.284;2022-09-09T11:22:15;19.30;99.90
52159;DHT22;38145;53.182;6.284;2022-09-09T11:24:49;19.20;99.90
52159;DHT22;38145;53.182;6.284;2022-09-09T11:27:25;19.10;99.90
52159;DHT22;38145;53.182;6.284;2022-09-09T11:30:12;19.20;99.90
52159;DHT22;38145;53.182;6.284;2022-09-09T11:32:47;19.40;99.90
52159;DHT22;38145;53.182;6.284;2022-09-09T11:35:30;19.40;99.90
52159;DHT22;38145;53.182;6.284;2022-09-09T11:38:23;19.50;99.90
52159;DHT22;38145;53.182;6.284;2022-09-09T11:41:00;19.50;99.90
52159;DHT22;38145;53.182;6.284;2022-09-09T11:43:30;19.50;99.90
52159;DHT22;38145;53.182;6.284;2022-09-09T11:45:59;19.40;99.90
52159;DHT22;38145;53.182;6.284;2022-09-09T11:48:31;19.40;99.90
52159;DHT22;38145;53.182;6.284;2022-09-09T11:53:26;19.50;99.90
52159;DHT22;38145;53.182;6.284;2022-09-09T11:56:05;19.50;99.90
52159;DHT22;38145;53.182;6.284;2022-09-09T11:58:37;19.70;99.90
52159;DHT22;38145;53.182;6.284;2022-09-09T12:01:14;19.70;99.90
52159;DHT22;38145;53.182;6.284;2022-09-09T12:03:48;19.80;99.90
52159;DHT22;38145;53.182;6.284;2022-09-09T12:06:20;19.80;99.90
52159;DHT22;38145;53.182;6.284;2022-09-09T12:08:54;19.80;99.90
52159;DHT22;38145;53.182;6.284;2022-09-09T12:11:26;19.80;99.90
52159;DHT22;38145;53.182;6.284;2022-09-09T12:13:58;19.60;99.90
52159;DHT22;38145;53.182;6.284;2022-09-09T12:16:30;19.50;99.90
52159;DHT22;38145;53.182;6.284;2022-09-09T12:19:05;19.40;99.90
52159;DHT22;38145;53.182;6.284;2022-09-09T12:21:43;19.30;99.90
52159;DHT22;38145;53.182;6.284;2022-09-09T12:24:14;19.30;99.90
52159;DHT22;38145;53.182;6.284;2022-09-09T12:26:55;19.40;99.90
52159;DHT22;38145;53.182;6.284;2022-09-09T12:29:41;19.30;99.90
52159;DHT22;38145;53.182;6.284;2022-09-09T12:32:17;19.60;99.90
52159;DHT22;38145;53.182;6.284;2022-09-09T12:35:02;20.00;99.90
52159;DHT22;38145;53.182;6.284;2022-09-09T12:37:29;20.10;99.90
52159;DHT22;38145;53.182;6.284;2022-09-09T12:40:00;20.20;99.90
52159;DHT22;38145;53.182;6.284;2022-09-09T12:42:28;20.40;99.90
52159;DHT22;38145;53.182;6.284;2022-09-09T12:44:57;20.50;99.90
52159;DHT22;38145;53.182;6.284;2022-09-09T12:47:36;20.60;99.90
52159;DHT22;38145;53.182;6.284;2022-09-09T12:50:05;20.70;99.90
52159;DHT22;38145;53.182;6.284;2022-09-09T12:52:40;20.90;99.90
52159;DHT22;38145;53.182;6.284;2022-09-09T12:55:07;20.90;99.90
52159;DHT22;38145;53.182;6.284;2022-09-09T12:57:36;20.90;99.90
52159;DHT22;38145;53.182;6.284;2022-09-09T13:00:11;21.00;99.90
52159;DHT22;38145;53.182;6.284;2022-09-09T13:05:19;21.30;99.90
52159;DHT22;38145;53.182;6.284;2022-09-09T13:07:46;21.30;99.90
52159;DHT22;38145;53.182;6.284;2022-09-09T13:10:14;21.40;99.90
52159;DHT22;38145;53.182;6.284;2022-09-09T13:12:42;21.40;99.90
52159;DHT22;38145;53.182;6.284;2022-09-09T13:15:19;21.30;99.90
52159;DHT22;38145;53.182;6.284;2022-09-09T13:17:49;21.40;99.90
52159;DHT22;38145;53.182;6.284;2022-09-09T13:20:17;21.20;99.90
52159;DHT22;38145;53.182;6.284;2022-09-09T13:22:43;21.00;99.90
52159;DHT22;38145;53.182;6.284;2022-09-09T13:27:38;20.70;99.90
52159;DHT22;38145;53.182;6.284;2022-09-09T13:35:49;20.40;99.90
52159;DHT22;38145;53.182;6.284;2022-09-09T13:38:16;20.40;99.90
52159;DHT22;38145;53.182;6.284;2022-09-09T13:43:31;20.60;99.90
52159;DHT22;38145;53.182;6.284;2022-09-09T13:46:01;20.70;99.90
52159;DHT22;38145;53.182;6.284;2022-09-09T13:48:28;20.90;99.90
52159;DHT22;38145;53.182;6.284;2022-09-09T13:50:58;21.00;99.90
52159;DHT22;38145;53.182;6.284;2022-09-09T13:53:24;21.10;99.90
52159;DHT22;38145;53.182;6.284;2022-09-09T13:55:50;21.20;99.90
52159;DHT22;38145;53.182;6.284;2022-09-09T13:58:17;21.10;99.90
52159;DHT22;38145;53.182;6.284;2022-09-09T14:00:45;21.00;99.90
52159;DHT22;38145;53.182;6.284;2022-09-09T14:03:11;20.80;99.90
52159;DHT22;38145;53.182;6.284;2022-09-09T14:05:36;20.60;99.90
52159;DHT22;38145;53.182;6.284;2022-09-09T14:08:04;20.50;99.90
52159;DHT22;38145;53.182;6.284;2022-09-09T14:10:31;20.40;99.90
52159;DHT22;38145;53.182;6.284;2022-09-09T14:12:57;20.30;99.90
52159;DHT22;38145;53.182;6.284;2022-09-09T14:15:23;20.00;99.90
52159;DHT22;38145;53.182;6.284;2022-09-09T14:17:49;19.80;99.90
52159;DHT22;38145;53.182;6.284;2022-09-09T14:20:15;19.60;99.90
52159;DHT22;38145;53.182;6.284;2022-09-09T14:22:43;19.50;99.90
52159;DHT22;38145;53.182;6.284;2022-09-09T14:25:09;19.50;99.90
52159;DHT22;38145;53.182;6.284;2022-09-09T14:27:35;19.50;99.90
52159;DHT22;38145;53.182;6.284;2022-09-09T14:30:01;19.60;99.90
52159;DHT22;38145;53.182;6.284;2022-09-09T14:32:27;19.70;99.90
52159;DHT22;38145;53.182;6.284;2022-09-09T14:34:53;19.60;99.90
52159;DHT22;38145;53.182;6.284;2022-09-09T14:37:19;19.50;99.90
52159;DHT22;38145;53.182;6.284;2022-09-09T14:39:46;19.60;99.90
52159;DHT22;38145;53.182;6.284;2022-09-09T14:42:13;19.70;99.90
52159;DHT22;38145;53.182;6.284;2022-09-09T14:44:39;19.60;99.90
52159;DHT22;38145;53.182;6.284;2022-09-09T14:47:06;19.70;99.90
52159;DHT22;38145;53.182;6.284;2022-09-09T14:49:34;19.90;99.90
52159;DHT22;38145;53.182;6.284;2022-09-09T14:52:00;20.00;99.90
52159;DHT22;38145;53.182;6.284;2022-09-09T14:54:26;20.20;99.90
52159;DHT22;38145;53.182;6.284;2022-09-09T14:56:53;20.30;99.90
52159;DHT22;38145;53.182;6.284;2022-09-09T14:59:19;20.40;99.90
52159;DHT22;38145;53.182;6.284;2022-09-09T15:01:45;20.40;99.90
52159;DHT22;38145;53.182;6.284;2022-09-09T15:04:12;20.40;99.90
52159;DHT22;38145;53.182;6.284;2022-09-09T15:06:40;20.40;99.90
52159;DHT22;38145;53.182;6.284;2022-09-09T15:09:08;20.40;99.90
52159;DHT22;38145;53.182;6.284;2022-09-09T15:11:36;20.30;99.90
52159;DHT22;38145;53.182;6.284;2022-09-09T15:14:04;20.10;99.90
52159;DHT22;38145;53.182;6.284;2022-09-09T15:16:31;20.00;99.90
52159;DHT22;38145;53.182;6.284;2022-09-09T15:18:59;19.80;99.90
52159;DHT22;38145;53.182;6.284;2022-09-09T15:21:27;19.80;99.90
52159;DHT22;38145;53.182;6.284;2022-09-09T15:23:54;19.70;99.90
52159;DHT22;38145;53.182;6.284;2022-09-09T15:26:21;19.70;99.90
52159;DHT22;38145;53.182;6.284;2022-09-09T15:28:47;19.70;99.90
52159;DHT22;38145;53.182;6.284;2022-09-09T15:31:17;19.70;99.90
52159;DHT22;38145;53.182;6.284;2022-09-09T15:33:52;19.60;99.90
52159;DHT22;38145;53.182;6.284;2022-09-09T15:36:21;19.60;99.90
52159;DHT22;38145;53.182;6.284;2022-09-09T15:38:48;19.50;99.90
52159;DHT22;38145;53.182;6.284;2022-09-09T15:41:14;19.50;99.90
52159;DHT22;38145;53.182;6.284;2022-09-09T15:43:49;19.40;99.90
52159;DHT22;38145;53.182;6.284;2022-09-09T15:49:11;19.30;99.90
52159;DHT22;38145;53.182;6.284;2022-09-09T15:51:39;19.20;99.90
52159;DHT22;38145;53.182;6.284;2022-09-09T15:54:04;19.20;99.90
52159;DHT22;38145;53.182;6.284;2022-09-09T15:56:31;19.00;99.90
52159;DHT22;38145;53.182;6.284;2022-09-09T15:58:59;18.80;99.90
52159;DHT22;38145;53.182;6.284;2022-09-09T16:01:26;18.70;99.90
52159;DHT22;38145;53.182;6.284;2022-09-09T16:03:52;18.60;99.90
52159;DHT22;38145;53.182;6.284;2022-09-09T16:06:21;18.50;99.90
52159;DHT22;38145;53.182;6.284;2022-09-09T16:08:49;18.40;99.90
52159;DHT22;38145;53.182;6.284;2022-09-09T16:11:21;18.40;99.90
52159;DHT22;38145;53.182;6.284;2022-09-09T16:13:49;18.50;99.90
52159;DHT22;38145;53.182;6.284;2022-09-09T16:16:16;18.50;99.90
52159;DHT22;38145;53.182;6.284;2022-09-09T16:18:46;18.60;99.90
52159;DHT22;38145;53.182;6.284;2022-09-09T16:21:17;18.60;99.90
52159;DHT22;38145;53.182;6.284;2022-09-09T16:23:44;18.60;99.90
52159;DHT22;38145;53.182;6.284;2022-09-09T16:26:13;18.60;99.90
52159;DHT22;38145;53.182;6.284;2022-09-09T16:28:40;18.70;99.90
52159;DHT22;38145;53.182;6.284;2022-09-09T16:31:08;18.70;99.90
52159;DHT22;38145;53.182;6.284;2022-09-09T16:33:37;18.70;99.90
52159;DHT22;38145;53.182;6.284;2022-09-09T16:36:07;18.60;99.90
52159;DHT22;38145;53.182;6.284;2022-09-09T16:38:33;18.70;99.90
52159;DHT22;38145;53.182;6.284;2022-09-09T16:41:01;18.70;99.90
52159;DHT22;38145;53.182;6.284;2022-09-09T16:43:27;18.70;99.90
52159;DHT22;38145;53.182;6.284;2022-09-09T16:45:53;18.70;99.90
52159;DHT22;38145;53.182;6.284;2022-09-09T16:48:19;18.70;99.90
52159;DHT22;38145;53.182;6.284;2022-09-09T16:50:45;18.70;99.90
52159;DHT22;38145;53.182;6.284;2022-09-09T16:53:12;18.60;99.90
52159;DHT22;38145;53.182;6.284;2022-09-09T16:55:40;18.70;99.90
52159;DHT22;38145;53.182;6.284;2022-09-09T16:58:07;18.60;99.90